sensor_id;sensor_type;location;lat;lon;timestamp;pressure;altitude;pressure_sealevel;temperature;humidity
16255;BME280;8235;52.198;9.904;2023-07-29T00:02:24;100010.50;;;20.88;82.27
16255;BME280;8235;52.198;9.904;2023-07-29T00:04:51;99996.66;;;20.83;82.35
16255;BME280;8235;52.198;9.904;2023-07-29T00:07:18;100000.75;;;20.78;82.55
16255;BME280;8235;52.198;9.904;2023-07-29T00:09:46;100010.28;;;20.74;83.09
16255;BME280;8235;52.198;9.904;2023-07-29T00:12:12;100008.56;;;20.73;83.04
16255;BME280;8235;52.198;9.904;2023-07-29T00:14:38;100010.78;;;20.70;83.18
16255;BME280;8235;52.198;9.904;2023-07-29T00:17:05;100012.16;;;20.66;83.30
16255;BME280;8235;52.198;9.904;2023-07-29T00:19:31;100018.75;;;20.63;83.58
16255;BME280;8235;52.198;9.904;2023-07-29T00:21:59;100012.88;;;20.60;83.86
16255;BME280;8235;52.198;9.904;2023-07-29T00:24:25;100015.09;;;20.56;84.00
16255;BME280;8235;52.198;9.904;2023-07-29T00:26:53;100014.59;;;20.53;83.97
16255;BME280;8235;52.198;9.904;2023-07-29T00:29:19;100011.56;;;20.48;84.08
16255;BME280;8235;52.198;9.904;2023-07-29T00:31:46;100011.25;;;20.42;84.42
16255;BME280;8235;52.198;9.904;2023-07-29T00:34:12;100011.81;;;20.38;84.63
16255;BME280;8235;52.198;9.904;2023-07-29T00:36:42;100011.44;;;20.33;85.00
16255;BME280;8235;52.198;9.904;2023-07-29T00:39:08;100013.81;;;20.28;84.99
16255;BME280;8235;52.198;9.904;2023-07-29T00:41:35;100011.47;;;20.25;85.31
16255;BME280;8235;52.198;9.904;2023-07-29T00:44:03;100016.22;;;20.23;85.43
16255;BME280;8235;52.198;9.904;2023-07-29T00:46:33;100004.91;;;20.19;85.52
16255;BME280;8235;52.198;9.904;2023-07-29T00:49:00;99996.31;;;20.16;85.48
16255;BME280;8235;52.198;9.904;2023-07-29T00:51:26;99995.13;;;20.10;85.75
16255;BME280;8235;52.198;9.904;2023-07-29T00:53:53;100002.75;;;20.06;86.03
16255;BME280;8235;52.198;9.904;2023-07-29T00:56:19;100010.38;;;20.03;86.50
16255;BME280;8235;52.198;9.904;2023-07-29T00:58:46;100000.75;;;20.00;86.43
16255;BME280;8235;52.198;9.904;2023-07-29T01:01:14;99999.56;;;19.95;86.46
16255;BME280;8235;52.198;9.904;2023-07-29T01:03:40;99998.06;;;19.92;86.70
16255;BME280;8235;52.198;9.904;2023-07-29T01:06:13;100000.25;;;19.89;86.82
16255;BME280;8235;52.198;9.904;2023-07-29T01:08:46;99987.28;;;19.84;87.23
16255;BME280;8235;52.198;9.904;2023-07-29T01:11:27;99994.72;;;19.82;87.58
16255;BME280;8235;52.198;9.904;2023-07-29T01:14:01;99990.66;;;19.78;88.14
16255;BME280;8235;52.198;9.904;2023-07-29T01:16:37;99984.75;;;19.74;88.31
16255;BME280;8235;52.198;9.904;2023-07-29T01:19:06;99995.06;;;19.71;88.79
16255;BME280;8235;52.198;9.904;2023-07-29T01:21:35;99994.41;;;19.69;89.07
16255;BME280;8235;52.198;9.904;2023-07-29T01:24:03;99993.75;;;19.67;89.08
16255;BME280;8235;52.198;9.904;2023-07-29T01:26:30;99987.81;;;19.63;89.47
16255;BME280;8235;52.198;9.904;2023-07-29T01:28:56;99982.59;;;19.62;89.70
16255;BME280;8235;52.198;9.904;2023-07-29T01:31:27;99983.94;;;19.58;90.04
16255;BME280;8235;52.198;9.904;2023-07-29T01:33:59;99976.84;;;19.57;90.19
16255;BME280;8235;52.198;9.904;2023-07-29T01:36:28;99975.16;;;19.56;90.54
16255;BME280;8235;52.198;9.904;2023-07-29T01:38:56;99968.06;;;19.55;90.44
16255;BME280;8235;52.198;9.904;2023-07-29T01:41:25;99973.84;;;19.52;90.68
16255;BME280;8235;52.198;9.904;2023-07-29T01:43:52;99977.56;;;19.51;91.04
16255;BME280;8235;52.198;9.904;2023-07-29T01:46:20;99981.41;;;19.48;91.07
16255;BME280;8235;52.198;9.904;2023-07-29T01:48:46;99980.72;;;19.46;91.59
16255;BME280;8235;52.198;9.904;2023-07-29T01:51:12;99971.94;;;19.44;91.63
16255;BME280;8235;52.198;9.904;2023-07-29T01:53:39;99974.16;;;19.40;91.98
16255;BME280;8235;52.198;9.904;2023-07-29T01:56:05;99975.31;;;19.38;92.29
16255;BME280;8235;52.198;9.904;2023-07-29T01:58:33;99963.19;;;19.34;92.59
16255;BME280;8235;52.198;9.904;2023-07-29T02:01:00;99968.75;;;19.32;92.60
16255;BME280;8235;52.198;9.904;2023-07-29T02:03:26;99970.13;;;19.28;93.05
16255;BME280;8235;52.198;9.904;2023-07-29T02:05:53;99974.16;;;19.24;93.47
16255;BME280;8235;52.198;9.904;2023-07-29T02:08:19;99972.47;;;19.23;94.09
16255;BME280;8235;52.198;9.904;2023-07-29T02:10:46;99968.06;;;19.22;94.50
16255;BME280;8235;52.198;9.904;2023-07-29T02:13:14;99953.91;;;19.20;94.92
16255;BME280;8235;52.198;9.904;2023-07-29T02:15:42;99957.28;;;19.22;95.81
16255;BME280;8235;52.198;9.904;2023-07-29T02:18:08;99946.66;;;19.21;95.78
16255;BME280;8235;52.198;9.904;2023-07-29T02:20:34;99946.66;;;19.21;96.28
16255;BME280;8235;52.198;9.904;2023-07-29T02:23:01;99945.81;;;19.20;96.91
16255;BME280;8235;52.198;9.904;2023-07-29T02:25:27;99936.88;;;19.20;96.86
16255;BME280;8235;52.198;9.904;2023-07-29T02:27:54;99943.09;;;19.20;97.35
16255;BME280;8235;52.198;9.904;2023-07-29T02:30:20;99946.66;;;19.21;97.58
16255;BME280;8235;52.198;9.904;2023-07-29T02:32:48;99943.94;;;19.21;97.67
16255;BME280;8235;52.198;9.904;2023-07-29T02:35:15;99933.16;;;19.21;97.77
16255;BME280;8235;52.198;9.904;2023-07-29T02:37:41;99938.38;;;19.22;97.94
16255;BME280;8235;52.198;9.904;2023-07-29T02:40:14;99935.00;;;19.20;97.98
16255;BME280;8235;52.198;9.904;2023-07-29T02:42:40;99939.41;;;19.21;98.15
16255;BME280;8235;52.198;9.904;2023-07-29T02:45:08;99941.94;;;19.23;98.18
16255;BME280;8235;52.198;9.904;2023-07-29T02:47:36;99945.47;;;19.23;98.03
16255;BME280;8235;52.198;9.904;2023-07-29T02:50:04;99947.16;;;19.24;98.19
16255;BME280;8235;52.198;9.904;2023-07-29T02:52:31;99952.56;;;19.24;97.98
16255;BME280;8235;52.198;9.904;2023-07-29T02:54:57;99954.25;;;19.25;98.18
16255;BME280;8235;52.198;9.904;2023-07-29T02:57:24;99948.84;;;19.25;98.24
16255;BME280;8235;52.198;9.904;2023-07-29T02:59:50;99948.00;;;19.25;98.08
16255;BME280;8235;52.198;9.904;2023-07-29T03:02:17;99953.41;;;19.25;98.12
16255;BME280;8235;52.198;9.904;2023-07-29T03:04:43;99952.56;;;19.24;97.72
16255;BME280;8235;52.198;9.904;2023-07-29T03:07:11;99949.84;;;19.24;97.72
16255;BME280;8235;52.198;9.904;2023-07-29T03:09:38;99935.50;;;19.24;97.43
16255;BME280;8235;52.198;9.904;2023-07-29T03:12:07;99944.47;;;19.24;97.36
16255;BME280;8235;52.198;9.904;2023-07-29T03:14:33;99945.13;;;19.26;96.94
16255;BME280;8235;52.198;9.904;2023-07-29T03:17:02;99950.03;;;19.31;96.91
16255;BME280;8235;52.198;9.904;2023-07-29T03:19:29;99941.78;;;19.32;96.73
16255;BME280;8235;52.198;9.904;2023-07-29T03:21:55;99939.53;;;19.36;96.45
16255;BME280;8235;52.198;9.904;2023-07-29T03:24:23;99935.66;;;19.38;96.32
16255;BME280;8235;52.198;9.904;2023-07-29T03:26:50;99928.25;;;19.40;96.14
16255;BME280;8235;52.198;9.904;2023-07-29T03:29:16;99927.91;;;19.43;96.03
16255;BME280;8235;52.198;9.904;2023-07-29T03:31:42;99925.03;;;19.45;95.87
16255;BME280;8235;52.198;9.904;2023-07-29T03:34:09;99924.00;;;19.46;95.71
16255;BME280;8235;52.198;9.904;2023-07-29T03:36:37;99926.53;;;19.48;95.44
16255;BME280;8235;52.198;9.904;2023-07-29T03:39:04;99939.88;;;19.49;95.44
16255;BME280;8235;52.198;9.904;2023-07-29T03:41:31;99931.78;;;19.49;95.15
16255;BME280;8235;52.198;9.904;2023-07-29T03:43:58;99943.47;;;19.50;94.97
16255;BME280;8235;52.198;9.904;2023-07-29T03:46:24;99943.47;;;19.50;95.37
16255;BME280;8235;52.198;9.904;2023-07-29T03:48:51;99938.19;;;19.48;95.45
16255;BME280;8235;52.198;9.904;2023-07-29T03:51:17;99931.94;;;19.48;95.67
16255;BME280;8235;52.198;9.904;2023-07-29T03:53:44;99931.09;;;19.47;95.65
16255;BME280;8235;52.198;9.904;2023-07-29T03:56:10;99932.13;;;19.46;95.74
16255;BME280;8235;52.198;9.904;2023-07-29T03:58:38;99920.47;;;19.46;95.95
16255;BME280;8235;52.198;9.904;2023-07-29T04:01:05;99927.91;;;19.43;96.19
16255;BME280;8235;52.198;9.904;2023-07-29T04:03:32;99921.81;;;19.41;96.45
16255;BME280;8235;52.198;9.904;2023-07-29T04:05:59;99913.03;;;19.39;97.00
16255;BME280;8235;52.198;9.904;2023-07-29T04:08:26;99915.91;;;19.38;97.29
16255;BME280;8235;52.198;9.904;2023-07-29T04:10:52;99910.69;;;19.36;97.63
16255;BME280;8235;52.198;9.904;2023-07-29T04:13:19;99910.69;;;19.36;98.05
16255;BME280;8235;52.198;9.904;2023-07-29T04:15:47;99910.84;;;19.35;98.24
16255;BME280;8235;52.198;9.904;2023-07-29T04:18:14;99912.53;;;19.36;98.55
16255;BME280;8235;52.198;9.904;2023-07-29T04:20:40;99905.47;;;19.35;98.61
16255;BME280;8235;52.198;9.904;2023-07-29T04:23:07;99901.94;;;19.34;99.13
16255;BME280;8235;52.198;9.904;2023-07-29T04:25:33;99905.28;;;19.36;99.30
16255;BME280;8235;52.198;9.904;2023-07-29T04:28:00;99902.75;;;19.35;99.49
16255;BME280;8235;52.198;9.904;2023-07-29T04:30:28;99901.75;;;19.36;99.84
16255;BME280;8235;52.198;9.904;2023-07-29T04:32:56;99901.56;;;19.37;100.00
16255;BME280;8235;52.198;9.904;2023-07-29T04:35:22;99904.28;;;19.37;100.00
16255;BME280;8235;52.198;9.904;2023-07-29T04:37:49;99906.97;;;19.37;100.00
16255;BME280;8235;52.198;9.904;2023-07-29T04:40:15;99905.97;;;19.38;100.00
16255;BME280;8235;52.198;9.904;2023-07-29T04:42:42;99895.84;;;19.40;100.00
16255;BME280;8235;52.198;9.904;2023-07-29T04:45:09;99889.41;;;19.41;100.00
16255;BME280;8235;52.198;9.904;2023-07-29T04:47:35;99895.66;;;19.42;100.00
16255;BME280;8235;52.198;9.904;2023-07-29T04:50:04;99901.91;;;19.42;100.00
16255;BME280;8235;52.198;9.904;2023-07-29T04:52:31;99900.06;;;19.43;100.00
16255;BME280;8235;52.198;9.904;2023-07-29T04:54:57;99900.91;;;19.43;100.00
16255;BME280;8235;52.198;9.904;2023-07-29T04:57:24;99902.75;;;19.43;100.00
16255;BME280;8235;52.198;9.904;2023-07-29T04:59:50;99890.09;;;19.43;100.00
16255;BME280;8235;52.198;9.904;2023-07-29T05:02:17;99890.78;;;19.46;100.00
16255;BME280;8235;52.198;9.904;2023-07-29T05:04:43;99890.44;;;19.49;100.00
16255;BME280;8235;52.198;9.904;2023-07-29T05:07:11;99889.44;;;19.50;100.00
16255;BME280;8235;52.198;9.904;2023-07-29T05:09:38;99891.97;;;19.51;100.00
16255;BME280;8235;52.198;9.904;2023-07-29T05:12:05;99892.44;;;19.55;100.00
16255;BME280;8235;52.198;9.904;2023-07-29T05:14:32;99889.75;;;19.55;100.00
16255;BME280;8235;52.198;9.904;2023-07-29T05:16:58;99885.88;;;19.57;100.00
16255;BME280;8235;52.198;9.904;2023-07-29T05:19:25;99889.25;;;19.59;100.00
16255;BME280;8235;52.198;9.904;2023-07-29T05:21:52;99893.63;;;19.60;100.00
16255;BME280;8235;52.198;9.904;2023-07-29T05:24:20;99885.34;;;19.62;100.00
16255;BME280;8235;52.198;9.904;2023-07-29T05:26:46;99880.63;;;19.64;100.00
16255;BME280;8235;52.198;9.904;2023-07-29T05:29:13;99881.28;;;19.66;100.00
16255;BME280;8235;52.198;9.904;2023-07-29T05:31:39;99881.28;;;19.66;100.00
16255;BME280;8235;52.198;9.904;2023-07-29T05:34:06;99880.94;;;19.69;100.00
16255;BME280;8235;52.198;9.904;2023-07-29T05:36:32;99880.94;;;19.69;100.00
16255;BME280;8235;52.198;9.904;2023-07-29T05:38:58;99887.00;;;19.71;100.00
16255;BME280;8235;52.198;9.904;2023-07-29T05:41:26;99891.38;;;19.72;100.00
16255;BME280;8235;52.198;9.904;2023-07-29T05:43:54;99891.22;;;19.73;100.00
16255;BME280;8235;52.198;9.904;2023-07-29T05:46:20;99907.91;;;19.77;100.00
16255;BME280;8235;52.198;9.904;2023-07-29T05:48:47;99896.28;;;19.76;100.00
16255;BME280;8235;52.198;9.904;2023-07-29T05:51:13;99888.00;;;19.78;100.00
16255;BME280;8235;52.198;9.904;2023-07-29T05:53:40;99889.69;;;19.79;100.00
16255;BME280;8235;52.198;9.904;2023-07-29T05:56:06;99899.63;;;19.79;100.00
16255;BME280;8235;52.198;9.904;2023-07-29T05:58:34;99889.69;;;19.79;100.00
16255;BME280;8235;52.198;9.904;2023-07-29T06:01:01;99878.88;;;19.79;100.00
16255;BME280;8235;52.198;9.904;2023-07-29T06:03:27;99882.59;;;19.78;100.00
16255;BME280;8235;52.198;9.904;2023-07-29T06:05:54;99873.47;;;19.79;100.00
16255;BME280;8235;52.198;9.904;2023-07-29T06:08:20;99871.59;;;19.80;100.00
16255;BME280;8235;52.198;9.904;2023-07-29T06:10:47;99858.94;;;19.80;100.00
16255;BME280;8235;52.198;9.904;2023-07-29T06:13:13;99856.25;;;19.80;100.00
16255;BME280;8235;52.198;9.904;2023-07-29T06:15:41;99865.19;;;19.81;100.00
16255;BME280;8235;52.198;9.904;2023-07-29T06:18:08;99862.50;;;19.81;100.00
16255;BME280;8235;52.198;9.904;2023-07-29T06:20:34;99874.31;;;19.80;100.00
16255;BME280;8235;52.198;9.904;2023-07-29T06:23:01;99871.59;;;19.80;100.00
16255;BME280;8235;52.198;9.904;2023-07-29T06:25:28;99857.09;;;19.81;100.00
16255;BME280;8235;52.198;9.904;2023-07-29T06:27:54;99863.31;;;19.81;100.00
16255;BME280;8235;52.198;9.904;2023-07-29T06:30:21;99871.44;;;19.81;100.00
16255;BME280;8235;52.198;9.904;2023-07-29T06:32:49;99882.25;;;19.81;100.00
16255;BME280;8235;52.198;9.904;2023-07-29T06:35:16;99882.06;;;19.83;100.00
16255;BME280;8235;52.198;9.904;2023-07-29T06:37:42;99885.63;;;19.83;100.00
16255;BME280;8235;52.198;9.904;2023-07-29T06:40:10;99892.88;;;19.83;100.00
16255;BME280;8235;52.198;9.904;2023-07-29T06:42:36;99889.84;;;19.86;100.00
16255;BME280;8235;52.198;9.904;2023-07-29T06:45:04;99882.41;;;19.88;100.00
16255;BME280;8235;52.198;9.904;2023-07-29T06:47:30;99889.28;;;19.90;100.00
16255;BME280;8235;52.198;9.904;2023-07-29T06:49:58;99880.66;;;19.95;100.00
16255;BME280;8235;52.198;9.904;2023-07-29T06:52:25;99889.09;;;20.00;100.00
16255;BME280;8235;52.198;9.904;2023-07-29T06:54:52;99892.63;;;20.00;100.00
16255;BME280;8235;52.198;9.904;2023-07-29T06:57:18;99894.31;;;20.01;100.00
16255;BME280;8235;52.198;9.904;2023-07-29T06:59:45;99897.19;;;20.00;100.00
16255;BME280;8235;52.198;9.904;2023-07-29T07:02:11;99895.16;;;20.02;100.00
16255;BME280;8235;52.198;9.904;2023-07-29T07:04:38;99888.41;;;20.06;100.00
16255;BME280;8235;52.198;9.904;2023-07-29T07:07:06;99896.97;;;20.09;100.00
16255;BME280;8235;52.198;9.904;2023-07-29T07:09:32;99892.91;;;20.14;100.00
16255;BME280;8235;52.198;9.904;2023-07-29T07:11:59;99885.47;;;20.16;100.00
16255;BME280;8235;52.198;9.904;2023-07-29T07:14:25;99895.91;;;20.19;100.00
16255;BME280;8235;52.198;9.904;2023-07-29T07:16:52;99893.88;;;20.21;100.00
16255;BME280;8235;52.198;9.904;2023-07-29T07:19:18;99896.25;;;20.24;100.00
16255;BME280;8235;52.198;9.904;2023-07-29T07:21:45;99896.53;;;20.29;100.00
16255;BME280;8235;52.198;9.904;2023-07-29T07:24:13;99887.72;;;20.35;100.00
16255;BME280;8235;52.198;9.904;2023-07-29T07:26:39;99885.00;;;20.35;100.00
16255;BME280;8235;52.198;9.904;2023-07-29T07:29:05;99882.00;;;20.38;100.00
16255;BME280;8235;52.198;9.904;2023-07-29T07:31:33;99885.53;;;20.38;100.00
16255;BME280;8235;52.198;9.904;2023-07-29T07:34:00;99887.56;;;20.36;100.00
16255;BME280;8235;52.198;9.904;2023-07-29T07:36:27;99895.50;;;20.38;100.00
16255;BME280;8235;52.198;9.904;2023-07-29T07:38:53;99885.19;;;20.41;100.00
16255;BME280;8235;52.198;9.904;2023-07-29T07:41:21;99883.31;;;20.42;100.00
16255;BME280;8235;52.198;9.904;2023-07-29T07:43:49;99884.97;;;20.43;100.00
16255;BME280;8235;52.198;9.904;2023-07-29T07:46:15;99885.63;;;20.45;100.00
16255;BME280;8235;52.198;9.904;2023-07-29T07:48:42;99890.69;;;20.48;100.00
16255;BME280;8235;52.198;9.904;2023-07-29T07:51:12;99886.63;;;20.52;100.00
16255;BME280;8235;52.198;9.904;2023-07-29T07:53:46;99878.81;;;20.57;100.00
16255;BME280;8235;52.198;9.904;2023-07-29T07:56:32;99868.44;;;20.61;100.00
16255;BME280;8235;52.198;9.904;2023-07-29T07:58:58;99860.63;;;20.66;100.00
16255;BME280;8235;52.198;9.904;2023-07-29T08:01:25;99858.06;;;20.72;100.00
16255;BME280;8235;52.198;9.904;2023-07-29T08:03:51;99859.00;;;20.79;100.00
16255;BME280;8235;52.198;9.904;2023-07-29T08:06:18;99868.09;;;20.87;100.00
16255;BME280;8235;52.198;9.904;2023-07-29T08:08:44;99861.09;;;20.92;100.00
16255;BME280;8235;52.198;9.904;2023-07-29T08:11:11;99852.41;;;20.97;100.00
16255;BME280;8235;52.198;9.904;2023-07-29T08:13:38;99841.53;;;21.05;100.00
16255;BME280;8235;52.198;9.904;2023-07-29T08:16:05;99850.97;;;21.09;100.00
16255;BME280;8235;52.198;9.904;2023-07-29T08:18:31;99860.19;;;21.14;100.00
16255;BME280;8235;52.198;9.904;2023-07-29T08:20:59;99855.25;;;21.18;100.00
16255;BME280;8235;52.198;9.904;2023-07-29T08:23:29;99849.84;;;21.18;100.00
16255;BME280;8235;52.198;9.904;2023-07-29T08:25:56;99856.63;;;21.22;100.00
16255;BME280;8235;52.198;9.904;2023-07-29T08:28:27;99858.28;;;21.23;100.00
16255;BME280;8235;52.198;9.904;2023-07-29T08:30:55;99855.41;;;21.25;100.00
16255;BME280;8235;52.198;9.904;2023-07-29T08:33:21;99860.66;;;21.26;99.76
16255;BME280;8235;52.198;9.904;2023-07-29T08:35:48;99862.31;;;21.27;98.88
16255;BME280;8235;52.198;9.904;2023-07-29T08:38:14;99866.53;;;21.30;98.17
16255;BME280;8235;52.198;9.904;2023-07-29T08:40:45;99869.25;;;21.30;97.90
16255;BME280;8235;52.198;9.904;2023-07-29T08:43:17;99877.19;;;21.31;97.56
16255;BME280;8235;52.198;9.904;2023-07-29T08:45:45;99876.78;;;21.34;97.53
16255;BME280;8235;52.198;9.904;2023-07-29T08:48:15;99868.31;;;21.37;97.71
16255;BME280;8235;52.198;9.904;2023-07-29T08:50:46;99873.34;;;21.40;97.63
16255;BME280;8235;52.198;9.904;2023-07-29T08:53:13;99864.84;;;21.43;97.51
16255;BME280;8235;52.198;9.904;2023-07-29T08:55:40;99868.41;;;21.44;97.35
16255;BME280;8235;52.198;9.904;2023-07-29T08:58:06;99876.34;;;21.45;97.39
16255;BME280;8235;52.198;9.904;2023-07-29T09:00:34;99882.44;;;21.47;97.44
16255;BME280;8235;52.198;9.904;2023-07-29T09:03:00;99887.66;;;21.49;96.88
16255;BME280;8235;52.198;9.904;2023-07-29T09:05:34;99882.03;;;21.51;96.75
16255;BME280;8235;52.198;9.904;2023-07-29T09:08:02;99877.28;;;21.53;96.48
16255;BME280;8235;52.198;9.904;2023-07-29T09:10:29;99870.16;;;21.52;96.04
16255;BME280;8235;52.198;9.904;2023-07-29T09:12:55;99869.16;;;21.53;95.21
16255;BME280;8235;52.198;9.904;2023-07-29T09:15:28;99867.47;;;21.52;95.04
16255;BME280;8235;52.198;9.904;2023-07-29T09:17:56;99868.13;;;21.54;94.79
16255;BME280;8235;52.198;9.904;2023-07-29T09:20:24;99869.81;;;21.55;94.50
16255;BME280;8235;52.198;9.904;2023-07-29T09:22:55;99863.00;;;21.59;94.08
16255;BME280;8235;52.198;9.904;2023-07-29T09:25:24;99857.56;;;21.59;93.89
16255;BME280;8235;52.198;9.904;2023-07-29T09:27:51;99860.75;;;21.62;93.80
16255;BME280;8235;52.198;9.904;2023-07-29T09:30:17;99863.53;;;21.69;94.18
16255;BME280;8235;52.198;9.904;2023-07-29T09:32:44;99866.53;;;21.74;93.76
16255;BME280;8235;52.198;9.904;2023-07-29T09:35:11;99866.25;;;21.83;93.61
16255;BME280;8235;52.198;9.904;2023-07-29T09:37:38;99860.44;;;21.87;92.94
16255;BME280;8235;52.198;9.904;2023-07-29T09:40:13;99864.63;;;21.89;91.49
16255;BME280;8235;52.198;9.904;2023-07-29T09:42:47;99865.56;;;21.96;91.00
16255;BME280;8235;52.198;9.904;2023-07-29T09:45:19;99853.88;;;22.10;91.25
16255;BME280;8235;52.198;9.904;2023-07-29T09:47:46;99856.75;;;22.24;90.42
16255;BME280;8235;52.198;9.904;2023-07-29T09:50:13;99846.72;;;22.39;89.69
16255;BME280;8235;52.198;9.904;2023-07-29T09:52:39;99852.44;;;22.50;88.53
16255;BME280;8235;52.198;9.904;2023-07-29T09:55:09;99857.53;;;22.60;86.43
16255;BME280;8235;52.198;9.904;2023-07-29T09:57:36;99849.28;;;22.68;85.51
16255;BME280;8235;52.198;9.904;2023-07-29T10:00:05;99849.34;;;22.75;84.07
16255;BME280;8235;52.198;9.904;2023-07-29T10:02:36;99851.69;;;22.78;82.46
16255;BME280;8235;52.198;9.904;2023-07-29T10:05:05;99854.00;;;22.81;81.98
16255;BME280;8235;52.198;9.904;2023-07-29T10:07:32;99854.94;;;22.88;81.59
16255;BME280;8235;52.198;9.904;2023-07-29T10:09:59;99847.47;;;22.97;81.00
16255;BME280;8235;52.198;9.904;2023-07-29T10:12:28;99854.94;;;23.16;81.68
16255;BME280;8235;52.198;9.904;2023-07-29T10:14:55;99852.72;;;23.26;78.63
16255;BME280;8235;52.198;9.904;2023-07-29T10:17:26;99844.59;;;23.33;76.92
16255;BME280;8235;52.198;9.904;2023-07-29T10:19:53;99845.28;;;23.41;76.60
16255;BME280;8235;52.198;9.904;2023-07-29T10:22:25;99842.28;;;23.58;77.71
16255;BME280;8235;52.198;9.904;2023-07-29T10:24:54;99848.44;;;23.73;75.70
16255;BME280;8235;52.198;9.904;2023-07-29T10:27:24;99842.63;;;23.89;75.44
16255;BME280;8235;52.198;9.904;2023-07-29T10:29:55;99842.53;;;24.10;74.42
16255;BME280;8235;52.198;9.904;2023-07-29T10:32:25;99831.94;;;24.29;72.78
16255;BME280;8235;52.198;9.904;2023-07-29T10:34:52;99836.34;;;24.36;69.00
16255;BME280;8235;52.198;9.904;2023-07-29T10:37:18;99838.84;;;24.38;67.50
16255;BME280;8235;52.198;9.904;2023-07-29T10:39:52;99837.63;;;24.47;67.72
16255;BME280;8235;52.198;9.904;2023-07-29T10:42:19;99833.66;;;24.63;65.35
16255;BME280;8235;52.198;9.904;2023-07-29T10:44:46;99831.16;;;24.74;64.84
16255;BME280;8235;52.198;9.904;2023-07-29T10:47:13;99825.09;;;24.85;63.21
16255;BME280;8235;52.198;9.904;2023-07-29T10:49:40;99825.53;;;24.96;62.78
16255;BME280;8235;52.198;9.904;2023-07-29T10:52:07;99818.00;;;25.04;61.14
16255;BME280;8235;52.198;9.904;2023-07-29T10:54:41;99813.38;;;25.18;59.85
16255;BME280;8235;52.198;9.904;2023-07-29T10:57:13;99827.81;;;25.25;58.41
16255;BME280;8235;52.198;9.904;2023-07-29T10:59:39;99811.22;;;25.33;57.95
16255;BME280;8235;52.198;9.904;2023-07-29T11:02:17;99806.78;;;25.45;58.02
16255;BME280;8235;52.198;9.904;2023-07-29T11:04:48;99815.16;;;25.50;56.86
16255;BME280;8235;52.198;9.904;2023-07-29T11:07:25;99812.84;;;25.60;56.62
16255;BME280;8235;52.198;9.904;2023-07-29T11:09:55;99819.16;;;25.61;55.55
16255;BME280;8235;52.198;9.904;2023-07-29T11:12:41;99821.47;;;25.57;55.94
16255;BME280;8235;52.198;9.904;2023-07-29T11:15:16;99822.28;;;25.58;55.84
16255;BME280;8235;52.198;9.904;2023-07-29T11:17:46;99815.59;;;25.54;55.85
16255;BME280;8235;52.198;9.904;2023-07-29T11:20:13;99824.41;;;25.49;56.09
16255;BME280;8235;52.198;9.904;2023-07-29T11:22:40;99816.03;;;25.44;55.99
16255;BME280;8235;52.198;9.904;2023-07-29T11:25:08;99820.25;;;25.40;56.10
16255;BME280;8235;52.198;9.904;2023-07-29T11:27:34;99806.63;;;25.34;55.08
16255;BME280;8235;52.198;9.904;2023-07-29T11:30:02;99810.81;;;25.36;55.58
16255;BME280;8235;52.198;9.904;2023-07-29T11:32:30;99811.19;;;25.46;55.79
16255;BME280;8235;52.198;9.904;2023-07-29T11:35:01;99815.59;;;25.54;55.53
16255;BME280;8235;52.198;9.904;2023-07-29T11:37:27;99822.72;;;25.62;53.47
16255;BME280;8235;52.198;9.904;2023-07-29T11:39:54;99811.81;;;25.62;50.94
16255;BME280;8235;52.198;9.904;2023-07-29T11:42:21;99836.97;;;25.64;50.75
16255;BME280;8235;52.198;9.904;2023-07-29T11:44:47;99829.63;;;25.64;49.09
16255;BME280;8235;52.198;9.904;2023-07-29T11:47:14;99822.06;;;25.73;49.30
16255;BME280;8235;52.198;9.904;2023-07-29T11:49:40;99833.38;;;25.76;49.73
16255;BME280;8235;52.198;9.904;2023-07-29T11:52:09;99824.16;;;25.77;49.80
16255;BME280;8235;52.198;9.904;2023-07-29T11:54:37;99827.25;;;25.81;49.42
16255;BME280;8235;52.198;9.904;2023-07-29T11:57:04;99833.97;;;25.85;49.86
16255;BME280;8235;52.198;9.904;2023-07-29T11:59:33;99840.03;;;25.87;49.33
16255;BME280;8235;52.198;9.904;2023-07-29T12:02:00;99836.06;;;25.89;48.48
16255;BME280;8235;52.198;9.904;2023-07-29T12:04:27;99843.19;;;25.90;47.56
16255;BME280;8235;52.198;9.904;2023-07-29T12:06:53;99838.56;;;25.91;47.42
16255;BME280;8235;52.198;9.904;2023-07-29T12:09:22;99844.03;;;25.91;47.39
16255;BME280;8235;52.198;9.904;2023-07-29T12:11:48;99845.91;;;25.97;47.43
16255;BME280;8235;52.198;9.904;2023-07-29T12:14:16;99835.16;;;26.02;47.53
16255;BME280;8235;52.198;9.904;2023-07-29T12:16:43;99844.38;;;26.08;47.36
16255;BME280;8235;52.198;9.904;2023-07-29T12:19:12;99853.59;;;26.13;47.08
16255;BME280;8235;52.198;9.904;2023-07-29T12:21:41;99847.06;;;26.14;45.78
16255;BME280;8235;52.198;9.904;2023-07-29T12:24:07;99845.63;;;26.12;45.17
16255;BME280;8235;52.198;9.904;2023-07-29T12:26:36;99847.72;;;26.10;44.97
16255;BME280;8235;52.198;9.904;2023-07-29T12:29:11;99848.13;;;26.13;45.74
16255;BME280;8235;52.198;9.904;2023-07-29T12:31:38;99838.41;;;26.24;45.80
16255;BME280;8235;52.198;9.904;2023-07-29T12:34:04;99840.50;;;26.28;44.23
16255;BME280;8235;52.198;9.904;2023-07-29T12:36:41;99843.88;;;26.31;44.41
16255;BME280;8235;52.198;9.904;2023-07-29T12:39:16;99837.72;;;26.35;44.32
16255;BME280;8235;52.198;9.904;2023-07-29T12:41:44;99840.66;;;26.40;43.85
16255;BME280;8235;52.198;9.904;2023-07-29T12:44:10;99842.50;;;26.46;43.25
16255;BME280;8235;52.198;9.904;2023-07-29T12:46:37;99845.25;;;26.46;43.18
16255;BME280;8235;52.198;9.904;2023-07-29T12:49:03;99842.28;;;26.48;43.39
16255;BME280;8235;52.198;9.904;2023-07-29T12:51:31;99843.97;;;26.49;43.05
16255;BME280;8235;52.198;9.904;2023-07-29T12:53:57;99845.66;;;26.50;42.82
16255;BME280;8235;52.198;9.904;2023-07-29T12:56:24;99844.13;;;26.54;42.86
16255;BME280;8235;52.198;9.904;2023-07-29T12:58:52;99842.66;;;26.51;41.54
16255;BME280;8235;52.198;9.904;2023-07-29T13:01:19;99842.91;;;26.50;41.57
16255;BME280;8235;52.198;9.904;2023-07-29T13:03:45;99850.06;;;26.51;41.64
16255;BME280;8235;52.198;9.904;2023-07-29T13:06:12;99840.13;;;26.56;41.94
16255;BME280;8235;52.198;9.904;2023-07-29T13:08:38;99831.47;;;26.66;41.84
16255;BME280;8235;52.198;9.904;2023-07-29T13:11:04;99848.19;;;26.76;41.56